Time;durP1;ratioP1;P1;durP2;ratioP2;P2;SDS_P1;SDS_P2;PMS_P1;PMS_P2;Temp;Humidity;BMP_temperature;BMP_pressure;BME280_temperature;BME280_humidity;BME280_pressure;Samples;Min_cycle;Max_cycle;Signal;HPM_P1;HPM_P2
2023/04/04 00:00:32;;;;;;;0.40;0.40;;;2.10;99.90;;;;;;4418982;32;20086;-72
2023/04/04 00:02:57;;;;;;;0.30;0.30;;;2.00;99.90;;;;;;4422064;32;20069;-73
2023/04/04 00:05:23;;;;;;;0.30;0.30;;;2.00;99.90;;;;;;4421556;32;20445;-75
2023/04/04 00:07:48;;;;;;;0.50;0.50;;;2.00;99.90;;;;;;4420838;32;20123;-74
2023/04/04 00:10:14;;;;;;;0.30;0.30;;;2.10;99.90;;;;;;4422424;32;20552;-72
2023/04/04 00:12:40;;;;;;;0.30;0.30;;;2.00;99.90;;;;;;4420829;32;20488;-71
2023/04/04 00:15:06;;;;;;;0.32;0.32;;;1.90;99.90;;;;;;4421156;32;20077;-73
2023/04/04 00:17:32;;;;;;;0.50;0.50;;;2.00;99.90;;;;;;4420427;32;20098;-73
2023/04/04 00:19:58;;;;;;;0.70;0.70;;;1.90;99.90;;;;;;4421451;32;20078;-71
2023/04/04 00:22:23;;;;;;;0.32;0.32;;;1.80;99.90;;;;;;4422224;32;20089;-72
2023/04/04 00:24:49;;;;;;;0.40;0.40;;;1.80;99.90;;;;;;4419887;32;20123;-73
2023/04/04 00:27:15;;;;;;;0.30;0.30;;;1.90;99.90;;;;;;4420454;32;20106;-71
2023/04/04 00:29:40;;;;;;;0.50;0.50;;;1.90;99.90;;;;;;4420580;32;20130;-73
2023/04/04 00:32:07;;;;;;;1.25;0.93;;;1.90;99.90;;;;;;4418241;32;20083;-71
2023/04/04 00:34:32;;;;;;;0.70;0.70;;;2.00;99.90;;;;;;4422364;32;20074;-72
2023/04/04 00:36:58;;;;;;;0.30;0.30;;;1.90;99.90;;;;;;4418331;32;20061;-74
2023/04/04 00:39:25;;;;;;;0.30;0.30;;;1.90;99.90;;;;;;4420352;32;20061;-71
2023/04/04 00:41:51;;;;;;;0.40;0.40;;;1.90;99.90;;;;;;4420655;32;20065;-74
2023/04/04 00:44:17;;;;;;;0.88;0.88;;;1.90;99.90;;;;;;4421742;32;20065;-73
2023/04/04 00:46:43;;;;;;;13.43;2.45;;;1.90;99.90;;;;;;4420351;32;20076;-73
2023/04/04 00:49:09;;;;;;;0.45;0.45;;;1.80;99.90;;;;;;4419556;32;20165;-71
2023/04/04 00:51:34;;;;;;;0.45;0.45;;;1.70;99.90;;;;;;4421129;32;20065;-71
2023/04/04 00:54:00;;;;;;;0.95;0.85;;;1.70;99.90;;;;;;4418477;32;20069;-72
2023/04/04 00:56:27;;;;;;;0.50;0.50;;;1.80;99.90;;;;;;4418019;32;20120;-72
2023/04/04 00:58:54;;;;;;;0.32;0.32;;;1.80;99.90;;;;;;4419023;32;20576;-72
2023/04/04 01:01:19;;;;;;;8.75;1.27;;;1.80;99.90;;;;;;4421170;32;20101;-72
2023/04/04 01:03:45;;;;;;;0.40;0.40;;;1.80;99.90;;;;;;4419584;32;20161;-72
2023/04/04 01:06:12;;;;;;;0.32;0.32;;;1.70;99.90;;;;;;4422986;32;20069;-72
2023/04/04 01:08:38;;;;;;;8.27;1.85;;;1.70;99.90;;;;;;4422977;32;20069;-72
2023/04/04 01:11:05;;;;;;;0.60;0.60;;;1.70;99.90;;;;;;4423816;32;20125;-72
2023/04/04 01:13:31;;;;;;;0.30;0.30;;;1.70;99.90;;;;;;4421563;32;20220;-73
2023/04/04 01:15:57;;;;;;;0.40;0.40;;;1.70;99.90;;;;;;4421406;32;20535;-72
2023/04/04 01:18:24;;;;;;;0.68;0.68;;;1.80;99.90;;;;;;4420554;32;20081;-72
2023/04/04 01:20:56;;;;;;;0.40;0.40;;;1.60;99.90;;;;;;4423895;32;20094;-71
2023/04/04 01:23:28;;;;;;;0.60;0.60;;;1.50;99.90;;;;;;4423920;32;20089;-71
2023/04/04 01:26:02;;;;;;;0.82;0.82;;;1.40;99.90;;;;;;4420788;32;20099;-72
2023/04/04 01:28:28;;;;;;;1.02;1.00;;;1.40;99.90;;;;;;4422864;32;20065;-70
2023/04/04 01:30:55;;;;;;;0.68;0.60;;;1.30;99.90;;;;;;4424096;32;20102;-71
2023/04/04 01:33:26;;;;;;;0.60;0.60;;;1.40;99.90;;;;;;4420167;32;20307;-71
2023/04/04 01:36:17;;;;;;;0.47;0.45;;;1.40;99.90;;;;;;4421685;32;20493;-72
2023/04/04 01:38:58;;;;;;;0.45;0.45;;;1.30;99.90;;;;;;4411526;32;20078;-72
2023/04/04 01:41:24;;;;;;;;;;;1.40;99.90;;;;;;4422500;32;20161;-71
2023/04/04 01:43:50;;;;;;;0.40;0.40;;;1.30;99.90;;;;;;4421515;32;20348;-71
2023/04/04 01:46:16;;;;;;;0.30;0.30;;;1.20;99.90;;;;;;4421941;32;20463;-72
2023/04/04 01:48:42;;;;;;;0.40;0.40;;;1.30;99.90;;;;;;4423588;32;20072;-70
2023/04/04 01:51:08;;;;;;;0.30;0.30;;;1.30;99.90;;;;;;4421887;32;20049;-70
2023/04/04 01:53:33;;;;;;;0.50;0.50;;;1.30;99.90;;;;;;4420967;32;20128;-70
2023/04/04 01:55:59;;;;;;;0.45;0.45;;;1.30;99.90;;;;;;4422743;32;20075;-71
2023/04/04 01:58:25;;;;;;;0.30;0.30;;;1.40;99.90;;;;;;4421973;32;20074;-70
2023/04/04 02:00:51;;;;;;;0.50;0.50;;;1.40;99.90;;;;;;4422128;32;20092;-71
2023/04/04 02:03:16;;;;;;;1.12;1.02;;;1.40;99.90;;;;;;4421545;32;20092;-69
2023/04/04 02:05:42;;;;;;;0.40;0.40;;;1.40;99.90;;;;;;4423764;32;20070;-70
2023/04/04 02:08:08;;;;;;;0.30;0.30;;;1.40;99.90;;;;;;4421864;32;20140;-71
2023/04/04 02:10:33;;;;;;;0.50;0.50;;;1.30;99.90;;;;;;4419905;32;20648;-72
2023/04/04 02:12:59;;;;;;;0.35;0.35;;;1.30;99.90;;;;;;4422280;32;20073;-71
2023/04/04 02:15:24;;;;;;;0.82;0.82;;;1.30;99.90;;;;;;4423394;32;20549;-71
2023/04/04 02:17:50;;;;;;;0.50;0.50;;;1.30;99.90;;;;;;4421840;32;20068;-72
2023/04/04 02:20:18;;;;;;;0.30;0.30;;;1.30;99.90;;;;;;4422449;32;20109;-69
2023/04/04 02:22:50;;;;;;;0.30;0.30;;;1.20;99.90;;;;;;4423883;32;20065;-71
2023/04/04 02:25:16;;;;;;;0.30;0.30;;;1.20;99.90;;;;;;4421289;32;20093;-71
2023/04/04 02:27:41;;;;;;;0.60;0.60;;;1.10;99.90;;;;;;4423111;32;20070;-73
2023/04/04 02:30:07;;;;;;;0.30;0.30;;;1.00;99.90;;;;;;4425403;32;20449;-71
2023/04/04 02:32:33;;;;;;;0.88;0.88;;;1.00;99.90;;;;;;4421746;32;20094;-73
2023/04/04 02:34:58;;;;;;;0.52;0.52;;;0.90;99.90;;;;;;4423478;32;20097;-71
2023/04/04 02:37:23;;;;;;;0.40;0.40;;;0.80;99.90;;;;;;4419393;32;20081;-72
2023/04/04 02:39:49;;;;;;;0.30;0.30;;;0.80;99.90;;;;;;4421165;32;20464;-71
2023/04/04 02:42:15;;;;;;;0.30;0.30;;;0.80;99.90;;;;;;4421398;32;20189;-71
2023/04/04 02:44:41;;;;;;;0.40;0.40;;;0.80;99.90;;;;;;4422769;32;20078;-71
2023/04/04 02:47:06;;;;;;;0.40;0.40;;;0.90;99.90;;;;;;4420716;32;20097;-72
2023/04/04 02:49:32;;;;;;;0.40;0.40;;;1.00;99.90;;;;;;4423339;32;20061;-71
2023/04/04 02:51:57;;;;;;;0.40;0.40;;;1.10;99.90;;;;;;4422984;32;20069;-71
2023/04/04 02:54:23;;;;;;;0.40;0.40;;;1.10;99.90;;;;;;4424171;32;20082;-71
2023/04/04 02:56:48;;;;;;;0.57;0.57;;;1.10;99.90;;;;;;4419409;32;20418;-73
2023/04/04 02:59:14;;;;;;;0.40;0.40;;;1.10;99.90;;;;;;4422110;32;20116;-72
2023/04/04 03:01:41;;;;;;;0.50;0.50;;;1.00;99.90;;;;;;4422204;32;20078;-72
2023/04/04 03:04:06;;;;;;;0.60;0.60;;;1.10;99.90;;;;;;4419173;32;20590;-71
2023/04/04 03:06:32;;;;;;;0.37;0.37;;;1.10;99.90;;;;;;4420864;32;20081;-75
2023/04/04 03:08:58;;;;;;;0.30;0.30;;;1.10;99.90;;;;;;4420804;32;20053;-72
2023/04/04 03:11:23;;;;;;;1.85;1.10;;;1.10;99.90;;;;;;4417055;32;20073;-72
2023/04/04 03:13:50;;;;;;;0.40;0.40;;;1.10;99.90;;;;;;4418172;32;20110;-73
2023/04/04 03:16:18;;;;;;;0.32;0.32;;;1.10;99.90;;;;;;4420959;32;20513;-72
2023/04/04 03:18:44;;;;;;;0.40;0.40;;;1.10;99.90;;;;;;4421977;32;20069;-70
2023/04/04 03:21:09;;;;;;;2.10;0.90;;;1.00;99.90;;;;;;4419286;32;20128;-72
2023/04/04 03:23:35;;;;;;;0.40;0.40;;;1.00;99.90;;;;;;4419812;32;20562;-71
2023/04/04 03:26:00;;;;;;;0.40;0.40;;;0.90;99.90;;;;;;4418276;32;20281;-71
2023/04/04 03:28:26;;;;;;;0.40;0.40;;;0.80;99.90;;;;;;4422208;32;20081;-70
2023/04/04 03:30:52;;;;;;;14.15;2.33;;;0.60;99.90;;;;;;4421514;32;20069;-72
2023/04/04 03:33:18;;;;;;;2.37;0.93;;;0.70;99.90;;;;;;4422125;32;20085;-72
2023/04/04 03:35:44;;;;;;;0.73;0.73;;;0.70;99.90;;;;;;4419858;32;20081;-71
2023/04/04 03:38:10;;;;;;;0.45;0.45;;;0.70;99.90;;;;;;4422298;32;20065;-71
2023/04/04 03:40:35;;;;;;;0.40;0.40;;;0.80;99.90;;;;;;4423576;32;20124;-72
2023/04/04 03:43:01;;;;;;;0.30;0.30;;;0.90;99.90;;;;;;4420532;32;20391;-72
2023/04/04 03:45:28;;;;;;;0.40;0.40;;;1.00;99.90;;;;;;4420257;32;20576;-72
2023/04/04 03:47:54;;;;;;;0.37;0.37;;;1.00;99.90;;;;;;4419774;32;20697;-73
2023/04/04 03:50:20;;;;;;;0.57;0.57;;;1.00;99.90;;;;;;4422239;32;20061;-74
2023/04/04 03:52:46;;;;;;;3.03;1.27;;;0.90;99.90;;;;;;4421587;32;20077;-72
2023/04/04 03:55:12;;;;;;;0.30;0.30;;;0.80;99.90;;;;;;4422665;32;20573;-74
2023/04/04 03:57:37;;;;;;;1.85;1.50;;;0.70;99.90;;;;;;4421441;32;20500;-74
2023/04/04 04:00:03;;;;;;;0.60;0.60;;;0.80;99.90;;;;;;4422019;32;20058;-71
2023/04/04 04:02:29;;;;;;;0.55;0.55;;;0.90;99.90;;;;;;4420562;32;20153;-72
2023/04/04 04:04:54;;;;;;;0.40;0.40;;;0.80;99.90;;;;;;4419844;32;20135;-72
2023/04/04 04:07:20;;;;;;;0.60;0.55;;;0.70;99.90;;;;;;4421028;32;20084;-74
2023/04/04 04:09:45;;;;;;;0.60;0.60;;;0.80;99.90;;;;;;4421668;32;20159;-71
2023/04/04 04:12:11;;;;;;;0.30;0.30;;;0.80;99.90;;;;;;4419406;32;21216;-72
2023/04/04 04:14:36;;;;;;;0.30;0.30;;;0.80;99.90;;;;;;4422308;32;20137;-71
2023/04/04 04:17:02;;;;;;;0.57;0.57;;;0.80;99.90;;;;;;4423405;32;20065;-71
2023/04/04 04:19:28;;;;;;;0.40;0.40;;;0.80;99.90;;;;;;4424393;32;20127;-71
2023/04/04 04:21:53;;;;;;;0.40;0.40;;;0.80;99.90;;;;;;4420316;32;20140;-72
2023/04/04 04:24:19;;;;;;;0.50;0.50;;;0.60;99.90;;;;;;4422783;32;20085;-70
2023/04/04 04:26:44;;;;;;;3.22;1.75;;;0.70;99.90;;;;;;4418858;32;20083;-72
2023/04/04 04:29:10;;;;;;;0.40;0.40;;;0.60;99.90;;;;;;4420518;32;20073;-72
2023/04/04 04:31:39;;;;;;;0.40;0.40;;;0.60;99.90;;;;;;4421652;32;20132;-69
2023/04/04 04:34:06;;;;;;;0.50;0.50;;;0.60;99.90;;;;;;4422757;32;20222;-73
2023/04/04 04:36:32;;;;;;;0.30;0.30;;;0.60;99.90;;;;;;4423323;32;20419;-71
2023/04/04 04:38:58;;;;;;;0.45;0.45;;;0.70;99.90;;;;;;4419572;32;20058;-72
2023/04/04 04:41:24;;;;;;;0.37;0.37;;;0.70;99.90;;;;;;4422325;32;20057;-72
2023/04/04 04:43:50;;;;;;;0.60;0.60;;;0.70;99.90;;;;;;4424255;32;20204;-72
2023/04/04 04:46:15;;;;;;;0.50;0.50;;;0.70;99.90;;;;;;4424570;32;20179;-71
2023/04/04 04:48:41;;;;;;;0.40;0.40;;;0.70;99.90;;;;;;4425871;32;20089;-71
2023/04/04 04:51:06;;;;;;;0.40;0.40;;;0.70;99.90;;;;;;4423839;32;20424;-72
2023/04/04 04:53:32;;;;;;;1.55;0.50;;;0.70;99.90;;;;;;4422900;32;20131;-74
2023/04/04 04:55:57;;;;;;;0.37;0.37;;;0.70;99.90;;;;;;4420798;32;20422;-75
2023/04/04 04:58:23;;;;;;;0.40;0.40;;;0.60;99.90;;;;;;4424353;32;20058;-72
2023/04/04 05:00:48;;;;;;;0.40;0.40;;;0.50;99.90;;;;;;4419350;32;20197;-71
2023/04/04 05:03:14;;;;;;;0.45;0.45;;;0.50;99.90;;;;;;4421020;32;20074;-73
2023/04/04 05:05:41;;;;;;;0.30;0.30;;;0.50;99.90;;;;;;4424121;32;20090;-73
2023/04/04 05:08:06;;;;;;;0.40;0.40;;;0.50;99.90;;;;;;4424592;32;20069;-71
2023/04/04 05:10:32;;;;;;;0.37;0.37;;;0.60;99.90;;;;;;4422579;32;20070;-71
2023/04/04 05:12:57;;;;;;;0.60;0.60;;;0.70;99.90;;;;;;4423037;32;20073;-72
2023/04/04 05:15:27;;;;;;;0.77;0.77;;;0.60;99.90;;;;;;4423720;32;20124;-75
2023/04/04 05:17:53;;;;;;;0.40;0.40;;;0.70;99.90;;;;;;4424670;32;20069;-72
2023/04/04 05:20:19;;;;;;;0.30;0.30;;;0.80;99.90;;;;;;4425202;32;20216;-71
2023/04/04 05:22:45;;;;;;;0.73;0.73;;;0.90;99.90;;;;;;4423969;32;20098;-73
2023/04/04 05:25:12;;;;;;;0.37;0.37;;;0.90;99.90;;;;;;4424033;32;20067;-73
2023/04/04 05:27:39;;;;;;;0.32;0.32;;;0.90;99.90;;;;;;4422358;32;20088;-71
2023/04/04 05:30:06;;;;;;;0.70;0.70;;;0.90;99.90;;;;;;4422299;32;20134;-72
2023/04/04 05:32:32;;;;;;;0.40;0.40;;;0.90;99.90;;;;;;4422589;32;20124;-72
2023/04/04 05:34:57;;;;;;;0.40;0.40;;;1.00;99.90;;;;;;4425767;32;20525;-72
2023/04/04 05:37:23;;;;;;;0.98;0.93;;;1.00;99.90;;;;;;4424128;32;20100;-71
2023/04/04 05:39:48;;;;;;;0.40;0.40;;;1.00;99.90;;;;;;4423240;32;20058;-73
2023/04/04 05:42:14;;;;;;;0.30;0.30;;;1.10;99.90;;;;;;4422676;32;20547;-74
2023/04/04 05:44:39;;;;;;;8.85;1.27;;;1.10;99.90;;;;;;4423798;32;20062;-70
2023/04/04 05:47:05;;;;;;;0.52;0.52;;;1.20;99.90;;;;;;4423510;32;20129;-70
2023/04/04 05:49:30;;;;;;;0.40;0.40;;;1.20;99.90;;;;;;4424885;32;20624;-70
2023/04/04 05:51:56;;;;;;;0.30;0.30;;;1.20;99.90;;;;;;4420595;32;20330;-75
2023/04/04 05:54:22;;;;;;;0.40;0.40;;;1.20;99.90;;;;;;4423374;32;20516;-70
2023/04/04 05:56:47;;;;;;;0.40;0.40;;;1.30;99.90;;;;;;4422344;32;20101;-70
2023/04/04 05:59:13;;;;;;;0.40;0.40;;;1.30;99.90;;;;;;4424257;32;20201;-72
2023/04/04 06:01:39;;;;;;;1.02;0.55;;;1.40;99.90;;;;;;4422604;32;20406;-73
2023/04/04 06:04:05;;;;;;;0.50;0.50;;;1.50;99.90;;;;;;4421445;32;20139;-75
2023/04/04 06:06:32;;;;;;;0.65;0.65;;;1.60;99.90;;;;;;4424108;32;20100;-71
2023/04/04 06:08:57;;;;;;;0.30;0.30;;;1.70;99.90;;;;;;4422587;32;20659;-72
2023/04/04 06:11:23;;;;;;;0.57;0.57;;;1.80;99.90;;;;;;4423881;32;20078;-72
2023/04/04 06:13:50;;;;;;;0.40;0.40;;;1.90;99.90;;;;;;4423911;32;20456;-72
2023/04/04 06:16:15;;;;;;;0.50;0.50;;;2.00;99.90;;;;;;4423752;32;20097;-73
2023/04/04 06:18:41;;;;;;;0.57;0.57;;;2.00;99.90;;;;;;4423547;32;20145;-71
2023/04/04 06:21:06;;;;;;;0.55;0.55;;;2.00;99.90;;;;;;4420312;32;20513;-71
2023/04/04 06:23:33;;;;;;;0.50;0.50;;;2.00;99.90;;;;;;4421640;32;20096;-72
2023/04/04 06:25:58;;;;;;;2.25;1.25;;;2.10;99.90;;;;;;4422750;32;20061;-71
2023/04/04 06:28:24;;;;;;;0.30;0.30;;;2.20;99.90;;;;;;4423423;32;20085;-70
2023/04/04 06:30:49;;;;;;;8.90;1.45;;;2.30;99.90;;;;;;4422358;32;20170;-74
2023/04/04 06:33:15;;;;;;;0.30;0.30;;;2.40;99.90;;;;;;4419549;32;20078;-72
2023/04/04 06:35:41;;;;;;;0.30;0.30;;;2.40;99.90;;;;;;4424375;32;20125;-71
2023/04/04 06:38:07;;;;;;;0.37;0.37;;;2.50;99.90;;;;;;4417742;32;20151;-72
2023/04/04 06:40:32;;;;;;;0.50;0.50;;;2.60;99.90;;;;;;4422585;32;20065;-72
2023/04/04 06:42:58;;;;;;;0.88;0.47;;;2.60;99.90;;;;;;4420896;32;20466;-72
2023/04/04 06:45:25;;;;;;;0.40;0.40;;;2.60;99.90;;;;;;4423330;32;20112;-72
2023/04/04 06:47:52;;;;;;;0.60;0.60;;;2.60;99.90;;;;;;4422209;32;20120;-73
2023/04/04 06:50:17;;;;;;;0.55;0.55;;;2.80;99.90;;;;;;4422719;32;20125;-71
2023/04/04 06:52:43;;;;;;;0.30;0.30;;;2.80;99.90;;;;;;4418383;32;20647;-74
2023/04/04 06:55:09;;;;;;;0.45;0.45;;;2.90;99.90;;;;;;4422196;32;20106;-71
2023/04/04 06:57:35;;;;;;;0.30;0.30;;;2.90;99.90;;;;;;4421501;32;20061;-71
2023/04/04 07:00:01;;;;;;;0.40;0.40;;;2.90;99.90;;;;;;4423726;32;20147;-71
2023/04/04 07:02:27;;;;;;;0.40;0.40;;;3.00;99.90;;;;;;4422562;32;20120;-74
2023/04/04 07:04:52;;;;;;;44.35;1.23;;;3.10;99.90;;;;;;4422991;32;20077;-71
2023/04/04 07:07:18;;;;;;;0.30;0.30;;;3.20;99.90;;;;;;4422719;32;20070;-71
2023/04/04 07:09:43;;;;;;;0.75;0.75;;;3.30;99.90;;;;;;4421965;32;20578;-72
2023/04/04 07:12:09;;;;;;;0.43;0.43;;;3.40;99.90;;;;;;4420619;32;20167;-71
2023/04/04 07:14:34;;;;;;;0.60;0.60;;;3.40;99.90;;;;;;4421259;32;20093;-72
2023/04/04 07:17:00;;;;;;;0.47;0.47;;;3.50;99.90;;;;;;4423032;32;20062;-72
2023/04/04 07:19:27;;;;;;;0.30;0.30;;;3.60;99.90;;;;;;4422060;32;20124;-72
2023/04/04 07:21:54;;;;;;;1.35;0.75;;;3.60;99.90;;;;;;4421105;32;20264;-72
2023/04/04 07:24:20;;;;;;;0.30;0.30;;;3.60;99.90;;;;;;4421549;32;20061;-72
2023/04/04 07:26:46;;;;;;;0.40;0.40;;;3.70;99.90;;;;;;4420867;32;20545;-72
2023/04/04 07:29:12;;;;;;;0.60;0.60;;;3.80;99.90;;;;;;4422080;32;20117;-72
2023/04/04 07:31:37;;;;;;;0.30;0.30;;;3.80;99.90;;;;;;4420150;32;20053;-72
2023/04/04 07:34:03;;;;;;;0.77;0.68;;;3.80;99.90;;;;;;4419534;32;20133;-71
2023/04/04 07:36:28;;;;;;;0.30;0.30;;;3.90;99.90;;;;;;4421400;32;20086;-72
2023/04/04 07:38:54;;;;;;;0.30;0.30;;;4.00;99.90;;;;;;4421059;32;20490;-74
2023/04/04 07:41:21;;;;;;;0.30;0.30;;;3.90;99.90;;;;;;4407358;32;20086;-73
2023/04/04 07:43:47;;;;;;;0.30;0.30;;;3.80;99.90;;;;;;4417790;32;20129;-72
2023/04/04 07:46:13;;;;;;;0.65;0.65;;;3.90;99.90;;;;;;4421457;32;20065;-72
2023/04/04 07:48:39;;;;;;;0.30;0.30;;;4.10;99.90;;;;;;4421887;32;20123;-73
2023/04/04 07:51:05;;;;;;;0.30;0.30;;;4.20;99.90;;;;;;4422729;32;20541;-72
2023/04/04 07:53:31;;;;;;;2.05;0.75;;;4.20;99.90;;;;;;4421183;32;20096;-73
2023/04/04 07:55:57;;;;;;;0.40;0.40;;;4.30;99.90;;;;;;4417622;32;20097;-74
2023/04/04 07:58:22;;;;;;;6.82;0.82;;;4.40;99.90;;;;;;4420233;32;20070;-71
2023/04/04 08:00:48;;;;;;;0.32;0.32;;;4.40;99.90;;;;;;4418832;32;20093;-72
2023/04/04 08:03:13;;;;;;;0.30;0.30;;;4.50;99.90;;;;;;4421571;32;20085;-72
2023/04/04 08:05:40;;;;;;;0.30;0.30;;;4.60;99.90;;;;;;4422855;32;20074;-73
2023/04/04 08:08:06;;;;;;;0.50;0.50;;;4.70;99.90;;;;;;4422238;32;20559;-73
2023/04/04 08:10:32;;;;;;;2.75;1.00;;;4.60;99.90;;;;;;4421626;32;20108;-72
2023/04/04 08:12:57;;;;;;;0.30;0.30;;;4.70;99.90;;;;;;4421273;32;20080;-71
2023/04/04 08:15:23;;;;;;;7.70;0.55;;;4.60;99.90;;;;;;4420400;32;20073;-72
2023/04/04 08:17:49;;;;;;;0.30;0.30;;;4.70;99.90;;;;;;4424317;32;20343;-72
2023/04/04 08:20:14;;;;;;;0.60;0.52;;;4.70;99.90;;;;;;4428996;32;20089;-71
2023/04/04 08:22:41;;;;;;;1.35;1.25;;;4.80;99.90;;;;;;4427287;32;20068;-73
2023/04/04 08:25:08;;;;;;;0.40;0.40;;;4.90;99.90;;;;;;4423632;32;20445;-76
2023/04/04 08:27:33;;;;;;;0.35;0.35;;;5.00;99.90;;;;;;4421846;32;20714;-73
2023/04/04 08:29:59;;;;;;;0.37;0.37;;;5.20;99.90;;;;;;4426327;32;20085;-71
2023/04/04 08:32:25;;;;;;;0.28;0.28;;;5.30;99.90;;;;;;4424746;32;20116;-71
2023/04/04 08:34:50;;;;;;;0.30;0.30;;;5.30;99.90;;;;;;4424896;32;20411;-72
2023/04/04 08:37:16;;;;;;;0.40;0.40;;;5.40;99.90;;;;;;4427721;32;20089;-71
2023/04/04 08:39:42;;;;;;;0.30;0.30;;;5.50;99.90;;;;;;4425454;32;20463;-73
2023/04/04 08:42:09;;;;;;;0.22;0.22;;;5.70;99.90;;;;;;4426260;32;20089;-72
2023/04/04 08:44:38;;;;;;;0.30;0.30;;;5.80;99.90;;;;;;4427061;32;20058;-72
2023/04/04 08:47:04;;;;;;;0.40;0.40;;;5.90;99.90;;;;;;4424206;32;20072;-72
2023/04/04 08:49:35;;;;;;;1.15;1.05;;;5.90;99.90;;;;;;4427590;32;20120;-71
2023/04/04 08:52:02;;;;;;;0.50;0.50;;;5.90;99.90;;;;;;4425799;32;20077;-72
2023/04/04 08:54:30;;;;;;;0.93;0.93;;;6.00;99.90;;;;;;4427829;32;20504;-72
2023/04/04 08:56:56;;;;;;;0.47;0.47;;;5.90;99.90;;;;;;4426350;32;20065;-72
2023/04/04 08:59:21;;;;;;;0.50;0.50;;;6.10;99.90;;;;;;4424922;32;21023;-71
2023/04/04 09:01:47;;;;;;;0.20;0.20;;;6.30;99.90;;;;;;4425175;32;20069;-71
2023/04/04 09:04:13;;;;;;;0.20;0.20;;;6.40;99.90;;;;;;4425296;32;20086;-72
2023/04/04 09:06:39;;;;;;;0.40;0.40;;;6.60;99.90;;;;;;4425357;32;20721;-71
2023/04/04 09:09:06;;;;;;;60.35;4.03;;;6.50;99.90;;;;;;4424689;32;20413;-71
2023/04/04 09:11:32;;;;;;;0.37;0.37;;;6.40;99.90;;;;;;4424163;32;20070;-72
2023/04/04 09:14:01;;;;;;;0.28;0.28;;;6.20;99.90;;;;;;4426354;32;20053;-72
2023/04/04 09:16:27;;;;;;;0.28;0.28;;;6.40;99.90;;;;;;4422840;32;20583;-72
2023/04/04 09:18:53;;;;;;;0.25;0.25;;;6.50;99.90;;;;;;4426995;32;20074;-73
2023/04/04 09:21:19;;;;;;;0.30;0.30;;;6.50;99.90;;;;;;4424992;32;20062;-72
2023/04/04 09:23:44;;;;;;;0.20;0.20;;;6.60;99.90;;;;;;4426434;32;20116;-72
2023/04/04 09:26:12;;;;;;;4.97;1.10;;;6.70;99.90;;;;;;4425471;32;20181;-73
2023/04/04 09:28:37;;;;;;;0.30;0.30;;;7.30;99.90;;;;;;4425151;32;20236;-72
2023/04/04 09:31:07;;;;;;;0.30;0.30;;;7.10;99.90;;;;;;4422766;32;20507;-72
2023/04/04 09:33:33;;;;;;;25.48;0.62;;;6.90;99.90;;;;;;4422607;32;20081;-72
2023/04/04 09:36:03;;;;;;;0.30;0.30;;;6.60;99.90;;;;;;4422151;32;20057;-73
2023/04/04 09:38:30;;;;;;;0.30;0.30;;;6.80;99.90;;;;;;4424900;32;20070;-72
2023/04/04 09:40:56;;;;;;;0.30;0.30;;;6.90;99.90;;;;;;4422852;32;20086;-74
2023/04/04 09:43:23;;;;;;;0.37;0.37;;;6.90;99.90;;;;;;4422025;32;20417;-72
2023/04/04 09:45:49;;;;;;;0.40;0.40;;;7.20;99.90;;;;;;4419539;32;20093;-73
2023/04/04 09:48:32;;;;;;;0.30;0.30;;;7.40;99.90;;;;;;4423597;32;20081;-75
2023/04/04 09:50:58;;;;;;;0.30;0.30;;;7.30;99.90;;;;;;4411058;32;20524;-71
2023/04/04 09:53:24;;;;;;;0.30;0.30;;;7.30;99.90;;;;;;4423133;32;20077;-73
2023/04/04 09:55:51;;;;;;;0.40;0.40;;;7.20;99.90;;;;;;4420666;32;20520;-71
2023/04/04 09:58:22;;;;;;;0.32;0.32;;;6.90;99.90;;;;;;4423094;32;20074;-71
2023/04/04 10:00:50;;;;;;;1.77;1.23;;;6.40;99.90;;;;;;4423100;32;20065;-72
2023/04/04 10:03:17;;;;;;;0.30;0.30;;;6.10;99.90;;;;;;4422164;32;20086;-72
2023/04/04 10:05:45;;;;;;;0.30;0.30;;;6.00;99.90;;;;;;4422575;32;20447;-71
2023/04/04 10:08:14;;;;;;;0.40;0.40;;;6.50;99.90;;;;;;4424229;32;20070;-72
2023/04/04 10:10:48;;;;;;;0.25;0.25;;;6.60;99.90;;;;;;4423883;32;20189;-72
2023/04/04 10:13:22;;;;;;;23.70;0.77;;;7.10;99.90;;;;;;4422934;32;20110;-71
2023/04/04 10:15:48;;;;;;;0.22;0.22;;;7.60;99.90;;;;;;4422481;32;20136;-71
2023/04/04 10:18:14;;;;;;;0.30;0.30;;;8.20;99.90;;;;;;4421230;32;20636;-71
2023/04/04 10:20:42;;;;;;;0.35;0.35;;;8.90;99.90;;;;;;4424549;32;20070;-71
2023/04/04 10:23:07;;;;;;;0.35;0.30;;;8.90;98.60;;;;;;4424200;32;20105;-71
2023/04/04 10:25:33;;;;;;;0.28;0.28;;;8.80;99.10;;;;;;4421743;32;20077;-70
2023/04/04 10:27:59;;;;;;;0.43;0.43;;;8.50;99.20;;;;;;4421250;32;20066;-75
2023/04/04 10:30:25;;;;;;;0.30;0.30;;;8.40;99.90;;;;;;4424978;32;20074;-73
2023/04/04 10:33:15;;;;;;;0.28;0.28;;;8.50;99.90;;;;;;4422490;32;20097;-70
2023/04/04 10:35:44;;;;;;;0.22;0.22;;;8.10;98.70;;;;;;4410369;32;20069;-71
2023/04/04 10:38:10;;;;;;;1.85;0.40;;;7.80;99.90;;;;;;4422274;32;20140;-72
2023/04/04 10:40:38;;;;;;;0.30;0.30;;;7.40;99.90;;;;;;4423516;32;20082;-70
2023/04/04 10:43:06;;;;;;;0.47;0.47;;;7.20;99.90;;;;;;4422374;32;20115;-72
2023/04/04 10:45:33;;;;;;;0.40;0.40;;;7.40;99.90;;;;;;4421449;32;20513;-70
2023/04/04 10:48:01;;;;;;;0.20;0.20;;;7.80;99.50;;;;;;4423178;32;20093;-73
2023/04/04 10:50:27;;;;;;;0.65;0.40;;;8.40;98.90;;;;;;4423156;32;20061;-72
2023/04/04 10:52:52;;;;;;;0.30;0.30;;;9.00;99.20;;;;;;4423170;32;20090;-72
2023/04/04 10:55:18;;;;;;;3.72;0.90;;;9.50;98.20;;;;;;4422489;32;20069;-72
2023/04/04 10:57:51;;;;;;;0.35;0.35;;;9.50;96.50;;;;;;4420056;32;20435;-72
2023/04/04 11:00:18;;;;;;;0.30;0.30;;;9.40;96.60;;;;;;4423915;32;20173;-74
2023/04/04 11:02:47;;;;;;;0.20;0.20;;;8.60;95.90;;;;;;4422533;32;20073;-71
2023/04/04 11:05:39;;;;;;;0.40;0.40;;;8.30;97.50;;;;;;4421287;32;20419;-72
2023/04/04 11:08:06;;;;;;;0.30;0.30;;;8.90;97.20;;;;;;4410810;32;20081;-73
2023/04/04 11:10:36;;;;;;;0.40;0.40;;;9.60;96.70;;;;;;4421586;32;20132;-73
2023/04/04 11:13:11;;;;;;;0.55;0.55;;;10.10;95.00;;;;;;4421523;32;20091;-72
2023/04/04 11:15:46;;;;;;;0.62;0.50;;;9.90;93.70;;;;;;4418006;32;20057;-74
2023/04/04 11:18:12;;;;;;;0.20;0.20;;;10.10;94.40;;;;;;4421231;32;20073;-74
2023/04/04 11:20:44;;;;;;;0.20;0.20;;;10.90;92.10;;;;;;4421047;32;20508;-72
2023/04/04 11:23:15;;;;;;;0.30;0.30;;;11.10;91.30;;;;;;4422184;32;20092;-71
2023/04/04 11:25:49;;;;;;;0.40;0.40;;;10.90;91.70;;;;;;4423115;32;20120;-71
2023/04/04 11:28:25;;;;;;;0.20;0.20;;;11.00;92.30;;;;;;4420605;32;20097;-72
2023/04/04 11:31:16;;;;;;;0.20;0.20;;;10.60;92.10;;;;;;4420990;32;20116;-72
2023/04/04 11:34:02;;;;;;;0.30;0.30;;;10.00;93.40;;;;;;4410292;32;20081;-74
2023/04/04 11:36:39;;;;;;;0.30;0.30;;;9.60;93.70;;;;;;4409765;32;20075;-75
2023/04/04 11:39:09;;;;;;;0.22;0.22;;;9.20;93.20;;;;;;4423166;32;20094;-73
2023/04/04 11:41:56;;;;;;;0.43;0.43;;;9.00;93.10;;;;;;4420293;32;20106;-72
2023/04/04 11:44:24;;;;;;;0.30;0.30;;;9.10;92.60;;;;;;4391684;32;604705;-73
2023/04/04 11:47:08;;;;;;;0.30;0.30;;;9.00;91.70;;;;;;4421448;32;20065;-72
2023/04/04 11:49:42;;;;;;;0.30;0.30;;;9.00;93.70;;;;;;4419541;32;20085;-72
2023/04/04 11:52:11;;;;;;;4.43;0.52;;;9.00;92.40;;;;;;4421365;32;20065;-72
2023/04/04 11:54:38;;;;;;;1.08;0.98;;;9.00;92.80;;;;;;4422387;32;20465;-73
2023/04/04 11:57:06;;;;;;;0.32;0.32;;;9.50;92.40;;;;;;4420518;32;20085;-75
2023/04/04 11:59:31;;;;;;;0.30;0.30;;;10.20;90.10;;;;;;4423320;32;20129;-72
2023/04/04 12:01:58;;;;;;;0.50;0.50;;;11.10;90.50;;;;;;4420953;32;20078;-75
2023/04/04 12:04:25;;;;;;;0.30;0.30;;;11.60;86.70;;;;;;4422029;32;20105;-76
2023/04/04 12:06:52;;;;;;;0.40;0.40;;;12.30;84.40;;;;;;4420784;32;20069;-71
2023/04/04 12:09:19;;;;;;;0.60;0.60;;;11.70;88.40;;;;;;4421975;32;20081;-71
2023/04/04 12:11:46;;;;;;;0.62;0.45;;;11.00;86.30;;;;;;4421260;32;20085;-71
2023/04/04 12:14:16;;;;;;;0.30;0.30;;;10.40;88.30;;;;;;4420577;32;20081;-72
2023/04/04 12:16:42;;;;;;;0.30;0.30;;;9.90;90.30;;;;;;4416763;32;20497;-71
2023/04/04 12:19:08;;;;;;;0.30;0.30;;;9.70;89.30;;;;;;4420618;32;20467;-71
2023/04/04 12:21:33;;;;;;;0.30;0.30;;;9.40;90.00;;;;;;4420699;32;20101;-70
2023/04/04 12:23:59;;;;;;;0.25;0.25;;;9.40;90.00;;;;;;4420504;32;20327;-71
2023/04/04 12:26:28;;;;;;;2.10;1.20;;;10.10;89.90;;;;;;4417967;32;20081;-71
2023/04/04 12:28:56;;;;;;;0.43;0.43;;;10.80;87.50;;;;;;4421201;32;20078;-71
2023/04/04 12:31:23;;;;;;;0.30;0.30;;;11.30;84.20;;;;;;4420486;32;20121;-71
2023/04/04 12:33:50;;;;;;;0.30;0.30;;;11.20;83.60;;;;;;4420721;32;20140;-73
2023/04/04 12:36:16;;;;;;;0.40;0.40;;;11.30;83.90;;;;;;4421614;32;20093;-71
2023/04/04 12:39:11;;;;;;;0.25;0.25;;;11.00;83.40;;;;;;4420935;32;20089;-72
2023/04/04 12:41:47;;;;;;;0.50;0.50;;;10.40;84.00;;;;;;4410389;32;20184;-74
2023/04/04 12:44:26;;;;;;;0.43;0.43;;;10.10;88.30;;;;;;4421533;32;20069;-74
2023/04/04 12:46:55;;;;;;;0.40;0.40;;;10.40;89.40;;;;;;4405917;32;20101;-71
2023/04/04 12:49:21;;;;;;;0.40;0.40;;;10.50;87.20;;;;;;4420702;32;20069;-71
2023/04/04 12:51:46;;;;;;;1.12;0.40;;;11.20;86.50;;;;;;4420878;32;20489;-73
2023/04/04 12:54:25;;;;;;;0.20;0.20;;;11.50;85.90;;;;;;4422471;32;20117;-73